Avon, CO

1:44 AM MST on November 23, 2014 (GMT -0700)
Lake County | Change Station
CLOSE
Current Station
Airport
Location: Leadville,
Elevation: 9928 ft
Nearby Weather Stations

Elev 9928 ft 39.23 °N, 106.32 °W | Updated 5 minutes ago

Snow
Snow
24 °F
Feels Like 13 °F
N
12
Wind Variable Wind from WNW
Gusts 23 mph

Today
High -- | Low -- °F
--% Chance of Precip.
Yesterday
High -- | Low -- °F
Precip. -- in
6:59 AM 4:45 PM
New Moon, 1% visible
Pressure 29.69 in
Visibility 3.0 miles
Clouds Mostly Cloudy 4000 ft
Overcast 7000 ft
Windchill 13 °F
Dew Point 20 °F
Humidity 84%
Rainfall 0.01 in
Snow Depth Not available.
UV 0 out of 12
Pollen .10 out of 12
Air Quality Not available.
Flu Activity Not available.
SPECI KLXV 230839Z AUTO 29010G20KT 3SM -SN BR BKN040 OVC070 M04/M07 A2969 RMK AO2 PK WND 31026/0825 P0000 T10441067

More Conditions Fewer Conditions

Pressure 29.69 in
Visibility 3.0 miles
Clouds Mostly Cloudy 4000 ft
Overcast 7000 ft
Windchill 13 °F
Dew Point 20 °F
Humidity 84%
Rainfall 0.01 in
Snow Depth Not available.
UV 0 out of 12
Pollen .10 out of 12
Air Quality Not available.
Flu Activity Not available.
SPECI KLXV 230839Z AUTO 29010G20KT 3SM -SN BR BKN040 OVC070 M04/M07 A2969 RMK AO2 PK WND 31026/0825 P0000 T10441067

More Conditions Fewer Conditions

10-Day Weather Forecast

Almanac

Astronomy

Nov. 23, 2014 Rise Set
Actual Time
Civil Twilight
Nautical Twilight
Astronomical Twilight
Moon
Length of Visible Light
Length of Day
Tomorrow will be .
, % of the Moon is Illuminated

Today's Extremes

State Highs State Lows

Community

WunderPhotos

Upload Photos

1,773,024 photos uploaded!

WunderBlogs® & News

Nearby

Air Quality

  Air Quality AQ Index Pollutant
Not available.

Snow Depth

Station Depth Elevation

Earthquake Activity

City Distance Mag. Time & Date
Minimum magnitude displayed is 2.5.

Coastal Water Temperatures

Place Temperature

Nearby Weather Stations